Time;durP1;ratioP1;P1;durP2;ratioP2;P2;SDS_P1;SDS_P2;PMS_P1;PMS_P2;Temp;Humidity;BMP_temperature;BMP_pressure;BME280_temperature;BME280_humidity;BME280_pressure;Samples;Min_cycle;Max_cycle;Signal;HPM_P1;HPM_P2
2023/12/03 00:02:12;;;;;;;12.70;5.63;;;4.60;99.90;;;;;;4998185;28;20083;-23
2023/12/03 00:04:38;;;;;;;18.58;7.75;;;4.60;99.90;;;;;;5003445;28;20242;-23
2023/12/03 00:07:04;;;;;;;13.80;6.07;;;4.60;99.90;;;;;;4971490;28;20094;-23
2023/12/03 00:09:30;;;;;;;13.00;5.38;;;4.60;99.90;;;;;;5007511;28;20021;-23
2023/12/03 00:11:56;;;;;;;9.80;4.70;;;4.60;99.90;;;;;;4977303;28;20048;-23
2023/12/03 00:14:22;;;;;;;13.20;5.80;;;4.60;99.90;;;;;;4996494;28;20104;-23
2023/12/03 00:16:47;;;;;;;12.00;5.70;;;4.50;99.90;;;;;;5005435;28;20216;-23
2023/12/03 00:19:13;;;;;;;14.37;5.90;;;4.40;99.90;;;;;;5010148;28;20032;-23
2023/12/03 00:21:39;;;;;;;12.85;5.35;;;4.40;99.90;;;;;;4990657;28;20623;-23
2023/12/03 00:24:05;;;;;;;11.97;5.00;;;5.60;99.90;;;;;;4972364;28;20048;-23
2023/12/03 00:26:31;;;;;;;12.65;5.35;;;4.30;99.90;;;;;;4985351;28;20720;-22
2023/12/03 00:28:57;;;;;;;15.02;6.07;;;4.20;99.90;;;;;;4988431;28;20041;-23
2023/12/03 00:31:22;;;;;;;14.97;6.33;;;6.30;99.90;;;;;;4997944;28;20050;-23
2023/12/03 00:33:48;;;;;;;13.95;5.70;;;4.10;99.90;;;;;;5004567;28;20046;-23
2023/12/03 00:36:14;;;;;;;14.65;6.20;;;4.10;99.90;;;;;;5010019;28;20109;-23
2023/12/03 00:38:40;;;;;;;10.73;4.90;;;4.00;99.90;;;;;;4951728;28;20132;-23
2023/12/03 00:41:06;;;;;;;15.18;5.60;;;4.00;99.90;;;;;;4992096;28;20058;-23
2023/12/03 00:43:32;;;;;;;12.35;5.22;;;3.90;99.90;;;;;;4977346;28;20057;-23
2023/12/03 00:45:58;;;;;;;11.57;5.33;;;3.90;99.90;;;;;;4966495;28;20030;-22
2023/12/03 00:48:24;;;;;;;10.63;5.50;;;3.90;99.90;;;;;;4990008;28;20026;-22
2023/12/03 00:50:50;;;;;;;11.25;5.00;;;3.80;99.90;;;;;;5009780;28;20080;-23
2023/12/03 00:53:15;;;;;;;11.37;5.20;;;3.80;99.90;;;;;;4980374;28;20064;-23
2023/12/03 00:55:41;;;;;;;12.93;5.50;;;3.70;99.90;;;;;;4980312;28;20341;-23
2023/12/03 00:58:07;;;;;;;12.73;5.23;;;3.60;99.90;;;;;;4995946;28;20044;-23
2023/12/03 01:00:33;;;;;;;10.50;5.05;;;3.60;99.90;;;;;;4992033;28;20122;-21
2023/12/03 01:02:58;;;;;;;12.40;4.68;;;3.50;99.90;;;;;;4988805;28;20219;-20
2023/12/03 01:05:25;;;;;;;10.80;4.53;;;3.80;99.90;;;;;;5006663;28;20053;-21
2023/12/03 01:07:50;;;;;;;11.38;4.70;;;3.50;99.90;;;;;;5006968;28;20411;-20
2023/12/03 01:10:16;;;;;;;8.97;4.20;;;3.40;99.90;;;;;;4971042;28;20394;-20
2023/12/03 01:12:42;;;;;;;8.45;3.88;;;3.50;99.90;;;;;;5004370;28;20030;-20
2023/12/03 01:15:08;;;;;;;10.67;4.43;;;3.30;99.90;;;;;;4982420;28;20508;-20
2023/12/03 01:17:34;;;;;;;9.25;3.63;;;3.30;99.90;;;;;;4989667;28;20025;-21
2023/12/03 01:19:59;;;;;;;9.45;4.43;;;3.20;99.90;;;;;;5005088;28;20555;-20
2023/12/03 01:22:25;;;;;;;7.83;3.70;;;3.20;99.90;;;;;;5006892;28;20419;-20
2023/12/03 01:24:51;;;;;;;11.48;5.18;;;3.10;99.90;;;;;;4961566;28;20141;-20
2023/12/03 01:27:17;;;;;;;8.53;3.77;;;3.10;99.90;;;;;;4991634;28;20057;-20
2023/12/03 01:29:42;;;;;;;9.45;3.75;;;3.00;99.90;;;;;;4981911;28;20156;-20
2023/12/03 01:32:08;;;;;;;9.80;4.13;;;3.10;99.90;;;;;;4997529;28;20037;-20
2023/12/03 01:34:34;;;;;;;9.07;4.10;;;3.00;99.90;;;;;;4978175;28;20045;-21
2023/12/03 01:37:00;;;;;;;11.38;4.72;;;2.90;99.90;;;;;;5002462;28;20029;-20
2023/12/03 01:39:26;;;;;;;10.90;4.60;;;2.90;99.90;;;;;;4993990;28;20018;-20
2023/12/03 01:41:52;;;;;;;9.82;4.20;;;2.90;99.90;;;;;;4952420;28;20197;-20
2023/12/03 01:44:18;;;;;;;10.88;4.68;;;2.80;99.90;;;;;;5008435;28;20077;-20
2023/12/03 01:46:47;;;;;;;10.15;3.83;;;2.80;99.90;;;;;;4986824;28;20634;-20
2023/12/03 01:49:13;;;;;;;9.70;4.20;;;2.80;99.90;;;;;;5008347;28;20092;-20
2023/12/03 01:51:39;;;;;;;7.87;4.10;;;2.70;99.90;;;;;;5005534;28;20040;-20
2023/12/03 01:54:06;;;;;;;12.23;5.05;;;5.80;99.90;;;;;;4990292;28;20091;-20
2023/12/03 01:56:32;;;;;;;11.32;4.60;;;2.70;99.90;;;;;;4972624;28;20033;-21
2023/12/03 01:58:58;;;;;;;11.20;4.93;;;2.70;99.90;;;;;;5003713;28;20025;-20
2023/12/03 02:01:24;;;;;;;9.67;4.43;;;2.60;99.90;;;;;;5002318;28;20028;-21
2023/12/03 02:03:50;;;;;;;10.70;4.40;;;2.60;99.90;;;;;;4987642;28;20242;-20
2023/12/03 02:06:16;;;;;;;9.43;4.53;;;2.60;99.90;;;;;;4995310;28;20075;-20
2023/12/03 02:08:42;;;;;;;8.77;4.10;;;2.60;99.90;;;;;;5002787;28;20373;-20
2023/12/03 02:11:07;;;;;;;9.35;4.50;;;2.60;99.90;;;;;;4975792;28;20034;-22
2023/12/03 02:13:36;;;;;;;9.45;4.35;;;2.50;99.90;;;;;;4976731;28;20037;-23
2023/12/03 02:16:02;;;;;;;10.43;4.43;;;2.50;99.90;;;;;;5007873;28;20033;-23
2023/12/03 02:18:29;;;;;;;9.40;4.40;;;2.50;99.90;;;;;;4968987;28;20041;-22
2023/12/03 02:20:55;;;;;;;9.95;4.32;;;2.50;99.90;;;;;;5006042;28;20025;-23
2023/12/03 02:23:21;;;;;;;11.40;4.40;;;2.50;99.90;;;;;;5004348;28;20076;-22
2023/12/03 02:25:50;;;;;;;9.93;4.90;;;2.40;99.90;;;;;;4993133;28;20849;-23
2023/12/03 02:28:17;;;;;;;10.23;4.23;;;2.40;99.90;;;;;;4969490;28;20431;-23
2023/12/03 02:30:44;;;;;;;12.13;4.43;;;2.40;99.90;;;;;;4990553;28;20212;-23
2023/12/03 02:33:10;;;;;;;10.30;4.57;;;2.30;99.90;;;;;;4998680;28;20394;-23
2023/12/03 02:35:36;;;;;;;11.02;4.13;;;2.40;99.90;;;;;;4993093;28;20041;-22
2023/12/03 02:38:01;;;;;;;11.80;4.50;;;2.30;99.90;;;;;;4971014;28;20170;-23
2023/12/03 02:40:31;;;;;;;10.15;4.22;;;2.30;99.90;;;;;;5003686;28;20036;-22
2023/12/03 02:42:57;;;;;;;10.43;4.13;;;2.30;99.90;;;;;;4970467;28;20365;-23
2023/12/03 02:45:23;;;;;;;9.67;4.47;;;2.20;99.90;;;;;;4990844;28;20034;-22
2023/12/03 02:47:48;;;;;;;11.80;4.97;;;2.20;99.90;;;;;;4994895;28;20263;-22
2023/12/03 02:50:14;;;;;;;10.37;4.70;;;2.20;99.90;;;;;;4994340;28;20080;-23
2023/12/03 02:52:41;;;;;;;9.40;4.40;;;2.20;99.90;;;;;;5001728;28;20140;-23
2023/12/03 02:55:07;;;;;;;10.50;4.07;;;2.20;99.90;;;;;;4990915;28;20387;-22
2023/12/03 02:57:33;;;;;;;11.27;4.55;;;2.10;99.90;;;;;;4980834;28;20044;-22
2023/12/03 02:59:58;;;;;;;12.43;4.65;;;2.10;99.90;;;;;;4953497;28;20041;-22
2023/12/03 03:02:24;;;;;;;12.03;4.53;;;4.00;99.90;;;;;;5004812;28;20036;-22
2023/12/03 03:04:50;;;;;;;12.27;4.63;;;2.10;99.90;;;;;;4978792;28;20220;-22
2023/12/03 03:07:16;;;;;;;10.77;4.03;;;2.10;99.90;;;;;;5004217;28;20036;-23
2023/12/03 03:09:42;;;;;;;12.60;4.97;;;2.10;99.90;;;;;;5005657;28;20265;-22
2023/12/03 03:12:08;;;;;;;9.32;4.03;;;2.10;99.90;;;;;;4987317;28;20034;-23
2023/12/03 03:14:34;;;;;;;10.00;4.45;;;2.10;99.90;;;;;;4968639;28;20025;-23
2023/12/03 03:17:00;;;;;;;9.93;4.37;;;2.00;99.90;;;;;;5005047;28;20039;-22
2023/12/03 03:19:25;;;;;;;10.23;4.45;;;2.00;99.90;;;;;;4982906;28;20057;-23
2023/12/03 03:21:52;;;;;;;10.43;4.35;;;2.00;99.90;;;;;;5008158;28;20114;-22
2023/12/03 03:24:17;;;;;;;9.27;4.30;;;2.00;99.90;;;;;;4990576;28;20033;-23
2023/12/03 03:26:43;;;;;;;11.18;4.50;;;2.00;99.90;;;;;;5008156;28;20058;-22
2023/12/03 03:29:09;;;;;;;10.93;4.73;;;2.00;99.90;;;;;;4970380;28;20528;-23
2023/12/03 03:31:34;;;;;;;8.75;4.47;;;2.00;99.90;;;;;;4992861;28;20423;-23
2023/12/03 03:34:00;;;;;;;11.40;4.35;;;0.30;99.90;;;;;;4996427;28;20755;-23
2023/12/03 03:36:26;;;;;;;10.17;4.47;;;1.90;99.90;;;;;;5011215;28;20454;-22
2023/12/03 03:38:52;;;;;;;11.93;4.90;;;1.90;99.90;;;;;;5003929;28;20033;-22
2023/12/03 03:41:18;;;;;;;11.50;5.28;;;1.90;99.90;;;;;;5008871;28;20034;-23
2023/12/03 03:43:44;;;;;;;9.60;4.47;;;-0.40;99.90;;;;;;4954039;28;20474;-22
2023/12/03 03:46:10;;;;;;;9.65;4.47;;;1.80;99.90;;;;;;4992132;28;20507;-23
2023/12/03 03:48:36;;;;;;;11.00;4.85;;;2.10;99.90;;;;;;5008967;28;20470;-23
2023/12/03 03:51:02;;;;;;;9.13;4.70;;;1.90;99.90;;;;;;4998978;28;20145;-23
2023/12/03 03:53:28;;;;;;;9.52;4.10;;;1.80;99.90;;;;;;4993846;28;20068;-23
2023/12/03 03:55:53;;;;;;;10.15;4.90;;;1.80;99.90;;;;;;4987473;28;20041;-22
2023/12/03 03:58:19;;;;;;;9.17;4.07;;;1.80;99.90;;;;;;5007534;28;20080;-23
2023/12/03 04:00:45;;;;;;;11.02;4.90;;;1.80;99.90;;;;;;4971218;28;20021;-22
2023/12/03 04:03:11;;;;;;;11.97;5.13;;;1.70;99.90;;;;;;5004943;28;20041;-22
2023/12/03 04:05:36;;;;;;;8.63;4.32;;;1.70;99.90;;;;;;4974795;28;20040;-22
2023/12/03 04:08:03;;;;;;;12.57;4.83;;;1.70;99.90;;;;;;4994676;28;20034;-23
2023/12/03 04:10:28;;;;;;;10.30;4.55;;;1.70;99.90;;;;;;4991859;28;20112;-22
2023/12/03 04:12:54;;;;;;;12.43;4.82;;;1.70;99.90;;;;;;5003514;28;20049;-22
2023/12/03 04:15:20;;;;;;;14.43;4.83;;;1.70;99.90;;;;;;4966054;28;20081;-22
2023/12/03 04:17:46;;;;;;;12.15;4.65;;;1.70;99.90;;;;;;5009190;28;20029;-22
2023/12/03 04:20:12;;;;;;;8.65;4.25;;;1.70;99.90;;;;;;4993293;28;20228;-22
2023/12/03 04:22:38;;;;;;;13.63;5.40;;;1.60;99.90;;;;;;4995230;28;20040;-23
2023/12/03 04:25:04;;;;;;;10.77;4.55;;;1.60;99.90;;;;;;4972668;28;20198;-23
2023/12/03 04:27:31;;;;;;;12.07;4.72;;;1.60;99.90;;;;;;4979131;28;20120;-23
2023/12/03 04:29:56;;;;;;;12.70;4.97;;;1.60;99.90;;;;;;4974632;28;20124;-22
2023/12/03 04:32:22;;;;;;;14.90;5.67;;;1.70;99.90;;;;;;4981066;28;20406;-20
2023/12/03 04:34:48;;;;;;;10.63;4.78;;;1.60;99.90;;;;;;4992765;28;20034;-21
2023/12/03 04:37:13;;;;;;;10.70;5.30;;;1.60;99.90;;;;;;4996101;28;20905;-20
2023/12/03 04:39:43;;;;;;;10.65;4.78;;;1.60;99.90;;;;;;4963558;28;20433;-21
2023/12/03 04:42:09;;;;;;;8.70;4.22;;;1.60;99.90;;;;;;4995497;28;20021;-20
2023/12/03 04:44:37;;;;;;;11.73;5.07;;;1.70;99.90;;;;;;5000771;28;20403;-20
2023/12/03 04:47:03;;;;;;;13.43;4.85;;;1.50;99.90;;;;;;4978254;28;20029;-20
2023/12/03 04:49:30;;;;;;;10.25;4.68;;;1.50;99.90;;;;;;5005742;28;20486;-20
2023/12/03 04:51:55;;;;;;;11.95;4.90;;;1.50;99.90;;;;;;4999492;28;20539;-21
2023/12/03 04:54:21;;;;;;;12.38;4.68;;;1.50;99.90;;;;;;5004868;28;20355;-20
2023/12/03 04:56:47;;;;;;;12.30;4.90;;;1.50;99.90;;;;;;4991001;28;20493;-20
2023/12/03 04:59:13;;;;;;;9.30;4.70;;;1.50;99.90;;;;;;5004476;28;20282;-20
2023/12/03 05:01:39;;;;;;;10.80;4.43;;;1.50;99.90;;;;;;5001712;28;20028;-20
2023/12/03 05:04:05;;;;;;;10.70;4.57;;;1.50;99.90;;;;;;4963690;28;20779;-20
2023/12/03 05:06:30;;;;;;;10.80;4.83;;;0.40;99.90;;;;;;5006772;28;20029;-20
2023/12/03 05:08:56;;;;;;;10.07;4.45;;;1.50;99.90;;;;;;4977932;28;20485;-20
2023/12/03 05:11:22;;;;;;;11.93;5.07;;;1.50;99.90;;;;;;4987738;28;20251;-20
2023/12/03 05:13:48;;;;;;;12.48;4.72;;;1.50;99.90;;;;;;4990302;28;20040;-20
2023/12/03 05:16:14;;;;;;;13.85;4.75;;;1.50;99.90;;;;;;4975267;28;20680;-20
2023/12/03 05:18:40;;;;;;;11.55;4.68;;;1.50;99.90;;;;;;4983217;28;20152;-20
2023/12/03 05:21:07;;;;;;;12.50;5.10;;;1.50;99.90;;;;;;5007538;28;20076;-20
2023/12/03 05:23:32;;;;;;;11.90;5.22;;;1.50;99.90;;;;;;5005328;28;20443;-20
2023/12/03 05:25:58;;;;;;;12.37;5.00;;;1.50;99.90;;;;;;4997741;28;20043;-21
2023/12/03 05:28:24;;;;;;;11.75;4.72;;;1.50;99.90;;;;;;5008464;28;20104;-20
2023/12/03 05:30:50;;;;;;;9.90;4.72;;;1.50;99.90;;;;;;4991810;28;20088;-20
2023/12/03 05:33:16;;;;;;;11.23;4.33;;;1.50;99.90;;;;;;4979554;28;20041;-19
2023/12/03 05:35:41;;;;;;;12.52;4.68;;;1.50;99.90;;;;;;5008901;28;20029;-20
2023/12/03 05:38:07;;;;;;;10.97;3.90;;;1.50;99.90;;;;;;5005297;28;20030;-20
2023/12/03 05:40:33;;;;;;;10.82;4.82;;;1.50;99.90;;;;;;4997975;28;20017;-23
2023/12/03 05:43:00;;;;;;;14.57;5.40;;;1.50;99.90;;;;;;5007046;28;20026;-23
2023/12/03 05:45:27;;;;;;;14.38;4.90;;;1.60;99.90;;;;;;5005324;28;20022;-23
2023/12/03 05:47:53;;;;;;;12.27;5.03;;;1.60;99.90;;;;;;4993612;28;20030;-22
2023/12/03 05:50:19;;;;;;;11.90;4.72;;;1.60;99.90;;;;;;4979309;28;20411;-23
2023/12/03 05:52:46;;;;;;;12.70;5.18;;;1.60;99.90;;;;;;5005092;28;20323;-23
2023/12/03 05:55:12;;;;;;;12.48;5.07;;;1.60;99.90;;;;;;4992038;28;20033;-23
2023/12/03 05:57:37;;;;;;;15.60;5.93;;;1.60;99.90;;;;;;4988385;28;20103;-23
2023/12/03 06:00:04;;;;;;;9.38;3.65;;;1.60;99.90;;;;;;4992761;28;20026;-22
2023/12/03 06:02:33;;;;;;;11.82;4.90;;;1.60;99.90;;;;;;5002866;28;20032;-23
2023/12/03 06:04:58;;;;;;;12.83;4.67;;;-0.30;99.90;;;;;;4982207;28;20034;-22
2023/12/03 06:07:24;;;;;;;13.73;5.22;;;4.20;99.90;;;;;;4991009;28;20545;-23
2023/12/03 06:09:50;;;;;;;9.82;4.35;;;1.70;99.90;;;;;;4973837;28;20394;-23
2023/12/03 06:12:16;;;;;;;11.40;5.00;;;1.70;99.90;;;;;;4996657;28;20632;-23
2023/12/03 06:14:42;;;;;;;9.85;4.03;;;1.70;99.90;;;;;;5005644;28;20026;-23
2023/12/03 06:17:08;;;;;;;11.20;4.68;;;1.70;99.90;;;;;;4985545;28;20231;-23
2023/12/03 06:19:34;;;;;;;11.37;4.70;;;1.70;99.90;;;;;;4986184;28;20088;-23
2023/12/03 06:22:00;;;;;;;11.82;4.63;;;1.80;99.90;;;;;;4966965;28;20399;-23
2023/12/03 06:24:26;;;;;;;10.32;4.18;;;1.80;99.90;;;;;;4998142;28;20028;-23
2023/12/03 06:26:54;;;;;;;10.85;4.57;;;1.80;99.90;;;;;;4983687;28;20116;-22
2023/12/03 06:29:20;;;;;;;12.73;4.93;;;0.30;99.90;;;;;;4983589;28;20506;-23
2023/12/03 06:31:47;;;;;;;12.25;4.60;;;1.80;99.90;;;;;;5005456;28;20585;-23
2023/12/03 06:34:13;;;;;;;11.55;4.78;;;1.80;99.90;;;;;;4991202;28;20529;-23
2023/12/03 06:36:39;;;;;;;13.70;5.10;;;1.90;99.90;;;;;;4979090;28;20052;-24
2023/12/03 06:39:05;;;;;;;11.18;4.30;;;1.80;99.90;;;;;;4993760;28;20679;-23
2023/12/03 06:41:30;;;;;;;11.80;4.50;;;1.80;99.90;;;;;;4988666;28;20056;-23
2023/12/03 06:43:56;;;;;;;10.63;4.53;;;1.80;99.90;;;;;;4983088;28;20809;-23
2023/12/03 06:46:22;;;;;;;13.88;4.72;;;0.90;99.90;;;;;;5004704;28;20025;-24
2023/12/03 06:48:48;;;;;;;10.37;4.53;;;1.80;99.90;;;;;;4975679;28;20157;-23
2023/12/03 06:51:13;;;;;;;14.45;5.10;;;1.80;99.90;;;;;;4990153;28;20037;-23
2023/12/03 06:53:39;;;;;;;10.98;4.25;;;1.80;99.90;;;;;;4971004;28;20040;-23
2023/12/03 06:56:09;;;;;;;11.93;4.93;;;1.90;99.90;;;;;;5006013;28;20033;-23
2023/12/03 06:58:35;;;;;;;11.85;4.68;;;1.80;99.90;;;;;;4988921;28;20030;-23
2023/12/03 07:01:01;;;;;;;11.05;4.55;;;3.80;99.90;;;;;;4971606;28;20119;-23
2023/12/03 07:03:26;;;;;;;11.93;5.20;;;1.80;99.90;;;;;;5013782;28;20026;-23
2023/12/03 07:05:54;;;;;;;11.65;4.43;;;1.80;99.90;;;;;;4977721;28;20117;-24
2023/12/03 07:08:20;;;;;;;12.07;4.47;;;1.90;99.90;;;;;;4968712;28;20034;-23
2023/12/03 07:10:46;;;;;;;9.47;4.30;;;1.90;99.90;;;;;;4982871;28;20104;-23
2023/12/03 07:13:12;;;;;;;10.90;4.55;;;1.40;99.90;;;;;;5006006;28;20035;-24
2023/12/03 07:15:38;;;;;;;14.13;5.63;;;1.80;99.90;;;;;;4995768;28;20060;-23
2023/12/03 07:18:04;;;;;;;14.40;5.17;;;1.90;99.90;;;;;;4987607;28;20203;-23
2023/12/03 07:20:30;;;;;;;12.27;5.13;;;1.90;99.90;;;;;;5000848;28;20018;-23
2023/12/03 07:22:55;;;;;;;11.50;4.73;;;1.90;99.90;;;;;;4979792;28;20637;-23
2023/12/03 07:25:22;;;;;;;10.77;4.63;;;1.90;99.90;;;;;;4987944;28;20564;-24
2023/12/03 07:27:48;;;;;;;12.27;4.30;;;1.90;99.90;;;;;;5013254;28;20573;-23
2023/12/03 07:30:14;;;;;;;9.55;3.55;;;1.90;99.90;;;;;;4982525;28;20454;-23
2023/12/03 07:32:40;;;;;;;12.57;4.37;;;1.90;99.90;;;;;;4995575;28;20315;-23
2023/12/03 07:35:06;;;;;;;11.13;4.47;;;2.00;99.90;;;;;;4991394;28;20506;-22
2023/12/03 07:37:32;;;;;;;12.25;4.47;;;2.00;99.90;;;;;;4992704;28;20046;-24
2023/12/03 07:39:58;;;;;;;9.40;3.87;;;2.00;99.90;;;;;;4967610;28;20576;-23
2023/12/03 07:42:27;;;;;;;12.95;4.80;;;2.00;99.90;;;;;;5011786;28;20627;-23
2023/12/03 07:44:53;;;;;;;13.13;4.90;;;2.00;99.90;;;;;;4993374;28;20052;-22
2023/12/03 07:47:19;;;;;;;11.48;4.25;;;2.10;99.90;;;;;;4982899;28;20252;-23
2023/12/03 07:49:45;;;;;;;12.40;4.93;;;2.10;99.90;;;;;;5014399;28;20028;-23
2023/12/03 07:52:10;;;;;;;10.15;4.22;;;2.10;99.90;;;;;;4995865;28;20131;-24
2023/12/03 07:54:36;;;;;;;12.13;5.03;;;2.10;99.90;;;;;;4986248;28;20311;-23
2023/12/03 07:57:02;;;;;;;15.02;6.03;;;2.20;99.90;;;;;;5008487;28;20029;-23
2023/12/03 07:59:29;;;;;;;12.82;4.88;;;2.20;99.90;;;;;;4991039;28;20389;-23
2023/12/03 08:01:55;;;;;;;9.27;3.00;;;2.20;99.90;;;;;;4981992;28;20442;-23
2023/12/03 08:04:21;;;;;;;11.82;4.57;;;2.20;99.90;;;;;;5008782;28;20514;-24
2023/12/03 08:06:46;;;;;;;10.73;4.03;;;2.30;99.90;;;;;;4998187;28;20026;-23
2023/12/03 08:09:12;;;;;;;13.52;5.43;;;2.30;99.90;;;;;;5008225;28;20053;-23
2023/12/03 08:11:38;;;;;;;12.83;5.23;;;2.40;99.90;;;;;;4983332;28;20037;-23
2023/12/03 08:14:04;;;;;;;13.93;5.07;;;2.40;99.90;;;;;;5007052;28;20034;-23
2023/12/03 08:16:30;;;;;;;13.73;4.75;;;2.40;99.90;;;;;;5010399;28;20068;-23
2023/12/03 08:18:56;;;;;;;13.10;4.57;;;2.50;99.90;;;;;;4998185;28;20493;-23
2023/12/03 08:21:22;;;;;;;11.32;4.57;;;2.50;99.90;;;;;;4982307;28;20286;-23
2023/12/03 08:23:47;;;;;;;8.77;2.87;;;2.60;99.90;;;;;;5009719;28;20084;-23
2023/12/03 08:26:13;;;;;;;11.82;4.65;;;2.70;99.90;;;;;;4980515;28;20034;-23
2023/12/03 08:28:39;;;;;;;8.97;3.77;;;2.60;99.90;;;;;;4973825;28;20045;-23
2023/12/03 08:31:05;;;;;;;7.95;2.85;;;2.70;99.90;;;;;;4985934;28;20054;-23
2023/12/03 08:33:31;;;;;;;12.38;4.88;;;2.60;99.90;;;;;;4966888;28;20113;-23
2023/12/03 08:35:57;;;;;;;14.23;4.77;;;2.70;99.90;;;;;;4987544;28;20033;-23
2023/12/03 08:38:23;;;;;;;12.80;4.57;;;2.70;99.90;;;;;;4979356;28;20344;-23
2023/12/03 08:40:48;;;;;;;10.02;4.18;;;2.90;99.90;;;;;;4965214;28;20085;-23
2023/12/03 08:43:15;;;;;;;8.60;3.40;;;2.80;99.90;;;;;;4986600;28;20022;-23
2023/12/03 08:45:41;;;;;;;16.15;5.78;;;2.80;99.90;;;;;;4994115;28;20374;-24
2023/12/03 08:48:07;;;;;;;11.63;4.45;;;2.80;99.90;;;;;;4974366;28;20221;-23
2023/12/03 08:50:33;;;;;;;16.03;5.47;;;2.90;99.90;;;;;;4989126;28;20053;-23
2023/12/03 08:52:59;;;;;;;12.40;5.40;;;2.90;99.90;;;;;;4979997;28;20113;-23
2023/12/03 08:55:25;;;;;;;12.73;4.68;;;2.90;99.90;;;;;;4987039;28;20053;-23
2023/12/03 08:57:51;;;;;;;11.43;4.20;;;2.90;99.90;;;;;;4958181;28;20026;-23
2023/12/03 09:00:17;;;;;;;14.13;4.80;;;3.00;99.90;;;;;;4987461;28;20141;-23
2023/12/03 09:02:47;;;;;;;10.40;3.22;;;3.00;99.90;;;;;;4993387;28;20091;-23
2023/12/03 09:05:13;;;;;;;11.52;4.47;;;3.00;99.90;;;;;;4968833;28;20343;-24
2023/12/03 09:07:39;;;;;;;12.30;4.72;;;3.00;99.90;;;;;;4988069;28;20133;-23
2023/12/03 09:10:06;;;;;;;12.77;4.43;;;3.10;99.90;;;;;;4964255;28;20031;-23
2023/12/03 09:12:32;;;;;;;10.73;4.37;;;3.10;99.90;;;;;;4965510;28;20038;-20
2023/12/03 09:14:58;;;;;;;11.27;4.32;;;3.10;99.90;;;;;;4984364;28;20049;-21
2023/12/03 09:17:26;;;;;;;7.35;3.08;;;3.10;99.90;;;;;;4983506;28;20381;-20
2023/12/03 09:19:52;;;;;;;13.13;4.82;;;3.20;99.90;;;;;;4976022;28;20375;-21
2023/12/03 09:22:18;;;;;;;13.85;5.55;;;3.20;99.90;;;;;;4991160;28;20594;-20
2023/12/03 09:24:43;;;;;;;11.47;4.73;;;3.30;99.90;;;;;;4978747;28;20037;-20
2023/12/03 09:27:09;;;;;;;11.48;5.15;;;3.30;99.90;;;;;;4957345;28;20224;-20
2023/12/03 09:29:36;;;;;;;12.27;4.40;;;3.30;99.90;;;;;;4990640;28;20524;-20
2023/12/03 09:32:03;;;;;;;10.07;3.58;;;3.30;99.90;;;;;;4987972;28;20068;-21
2023/12/03 09:34:29;;;;;;;14.38;4.63;;;3.30;99.90;;;;;;4980313;28;20029;-21
2023/12/03 09:36:56;;;;;;;12.83;4.60;;;3.40;99.90;;;;;;5007656;28;20033;-21
2023/12/03 09:39:22;;;;;;;12.13;4.15;;;3.40;99.90;;;;;;4998130;28;20069;-21
2023/12/03 09:41:49;;;;;;;13.93;5.40;;;3.40;99.90;;;;;;4977626;28;20137;-21
2023/12/03 09:44:47;;;;;;;14.20;5.60;;;3.50;99.90;;;;;;4971519;28;20510;-20
2023/12/03 09:47:17;;;;;;;13.63;5.10;;;3.50;99.90;;;;;;4998854;28;20466;-20
2023/12/03 09:49:47;;;;;;;14.77;5.30;;;3.60;99.90;;;;;;4996416;28;20120;-21
2023/12/03 09:52:15;;;;;;;14.63;5.35;;;3.60;99.90;;;;;;4969312;28;20462;-20
2023/12/03 09:54:43;;;;;;;12.23;4.72;;;3.70;99.90;;;;;;4995616;28;20286;-21
2023/12/03 09:57:09;;;;;;;12.98;4.82;;;3.70;99.90;;;;;;4997768;28;20032;-21
2023/12/03 09:59:40;;;;;;;15.63;5.33;;;3.80;99.90;;;;;;4963749;28;20086;-20
2023/12/03 10:02:12;;;;;;;13.43;5.05;;;3.90;99.90;;;;;;5005820;28;20078;-20
2023/12/03 10:04:37;;;;;;;16.75;6.57;;;3.90;99.90;;;;;;5006514;28;20220;-20
2023/12/03 10:07:07;;;;;;;15.38;5.53;;;4.00;99.90;;;;;;4993572;28;20077;-20
2023/12/03 10:09:33;;;;;;;14.13;4.80;;;4.10;99.90;;;;;;4996382;28;20052;-20
2023/12/03 10:12:05;;;;;;;14.00;5.87;;;4.10;99.90;;;;;;4986963;28;20029;-20
2023/12/03 10:14:31;;;;;;;14.70;4.95;;;4.20;99.90;;;;;;4975630;28;20606;-21
2023/12/03 10:16:57;;;;;;;13.18;5.07;;;4.30;99.90;;;;;;5006343;28;20053;-20
2023/12/03 10:19:26;;;;;;;14.67;5.50;;;4.40;99.90;;;;;;5000063;28;20033;-20
2023/12/03 10:21:57;;;;;;;10.25;4.15;;;4.50;99.90;;;;;;4981105;28;20018;-20
2023/12/03 10:24:23;;;;;;;10.45;4.60;;;4.60;99.90;;;;;;4986927;28;20041;-20
2023/12/03 10:26:51;;;;;;;13.57;5.30;;;4.70;99.90;;;;;;4994190;28;20034;-20
2023/12/03 10:29:19;;;;;;;17.27;6.77;;;4.80;99.90;;;;;;4977968;28;20676;-20
2023/12/03 10:31:49;;;;;;;13.73;5.13;;;5.00;99.90;;;;;;4988824;28;20041;-20
2023/12/03 10:34:15;;;;;;;14.85;5.60;;;4.90;99.90;;;;;;4955261;28;20333;-20
2023/12/03 10:36:44;;;;;;;13.25;4.95;;;5.00;99.90;;;;;;4988190;28;20285;-20
2023/12/03 10:39:16;;;;;;;12.35;4.95;;;5.00;99.90;;;;;;4966328;28;20148;-20
2023/12/03 10:41:47;;;;;;;13.53;4.87;;;4.90;99.90;;;;;;4997483;28;20204;-20
2023/12/03 10:44:17;;;;;;;14.40;5.63;;;5.00;99.90;;;;;;4969874;28;20022;-23
2023/12/03 10:46:44;;;;;;;14.95;5.50;;;7.00;99.90;;;;;;4963224;28;20121;-22
2023/12/03 10:49:12;;;;;;;13.32;4.93;;;5.00;99.90;;;;;;4979894;28;20033;-23
2023/12/03 10:51:41;;;;;;;11.32;4.65;;;5.00;99.90;;;;;;4992753;28;20029;-22
2023/12/03 10:54:07;;;;;;;11.93;4.70;;;5.00;99.90;;;;;;4990347;28;20030;-23
2023/12/03 10:56:34;;;;;;;12.00;4.38;;;5.00;99.90;;;;;;5004434;28;20053;-23
2023/12/03 10:59:03;;;;;;;12.30;4.57;;;5.00;99.90;;;;;;4968703;28;20156;-23
2023/12/03 11:01:31;;;;;;;15.88;5.45;;;5.00;99.90;;;;;;4988311;28;20063;-23
2023/12/03 11:04:00;;;;;;;13.55;4.90;;;5.00;99.90;;;;;;4990509;28;20408;-23
2023/12/03 11:06:26;;;;;;;12.53;4.53;;;5.10;99.90;;;;;;5005042;28;20627;-23
2023/12/03 11:08:53;;;;;;;13.43;4.78;;;5.10;99.90;;;;;;4985032;28;20218;-23
2023/12/03 11:11:23;;;;;;;9.88;3.53;;;5.10;99.90;;;;;;5005810;28;20148;-23
2023/12/03 11:13:54;;;;;;;7.88;3.40;;;5.10;99.90;;;;;;4949817;28;20764;-23
2023/12/03 11:16:21;;;;;;;14.73;5.47;;;5.20;99.90;;;;;;4984749;28;20345;-23
2023/12/03 11:18:54;;;;;;;14.00;5.23;;;5.20;99.90;;;;;;4974728;28;20831;-23
2023/12/03 11:21:39;;;;;;;12.18;4.65;;;5.20;99.90;;;;;;4999044;28;20038;-23
2023/12/03 11:24:26;;;;;;;13.98;5.53;;;5.20;99.90;;;;;;4982017;28;20331;-23
2023/12/03 11:26:52;;;;;;;10.40;4.55;;;5.20;99.90;;;;;;4997489;28;20231;-23
2023/12/03 11:29:18;;;;;;;10.67;4.77;;;5.20;99.90;;;;;;4993850;28;20594;-23
2023/12/03 11:31:44;;;;;;;14.85;5.30;;;5.20;99.90;;;;;;4978056;28;20494;-23
2023/12/03 11:34:10;;;;;;;14.68;5.70;;;5.20;99.90;;;;;;4989500;28;20042;-23
2023/12/03 11:36:49;;;;;;;9.27;3.77;;;5.30;99.90;;;;;;4995236;28;20026;-23
2023/12/03 11:39:15;;;;;;;15.82;5.93;;;5.10;99.90;;;;;;4990090;28;20680;-23
2023/12/03 11:41:44;;;;;;;15.05;5.70;;;5.10;99.90;;;;;;5007581;28;20034;-23
2023/12/03 11:44:30;;;;;;;12.13;4.90;;;5.10;99.90;;;;;;4990212;28;20357;-23
2023/12/03 11:47:03;;;;;;;13.35;5.72;;;5.10;99.90;;;;;;4979063;28;20060;-23
2023/12/03 11:49:30;;;;;;;14.13;5.70;;;5.10;99.90;;;;;;5006331;28;20057;-23
2023/12/03 11:51:56;;;;;;;14.20;5.55;;;5.10;99.90;;;;;;4991417;28;20696;-21
2023/12/03 11:54:30;;;;;;;14.30;5.75;;;5.10;99.90;;;;;;4996065;28;20260;-20
2023/12/03 11:56:56;;;;;;;11.45;4.53;;;5.10;99.90;;;;;;5004731;28;20057;-21
2023/12/03 11:59:22;;;;;;;12.30;4.50;;;5.10;99.90;;;;;;4995066;28;20409;-20
2023/12/03 12:01:48;;;;;;;11.00;3.97;;;5.10;99.90;;;;;;4968747;28;20030;-20
2023/12/03 12:04:23;;;;;;;11.63;4.73;;;5.20;99.90;;;;;;5006488;28;20037;-21
2023/12/03 12:06:53;;;;;;;15.53;5.53;;;5.20;99.90;;;;;;4997193;28;20272;-20
2023/12/03 12:09:25;;;;;;;11.02;4.80;;;5.20;99.90;;;;;;4998959;28;20131;-20
2023/12/03 12:11:51;;;;;;;11.20;4.50;;;5.20;99.90;;;;;;4979812;28;20083;-21
2023/12/03 12:14:17;;;;;;;10.93;4.78;;;5.20;99.90;;;;;;4999817;28;20660;-20
2023/12/03 12:16:45;;;;;;;16.30;6.05;;;5.20;99.90;;;;;;4998616;28;20303;-20
2023/12/03 12:19:11;;;;;;;11.23;4.47;;;5.10;99.90;;;;;;4981313;28;20232;-20
2023/12/03 12:21:57;;;;;;;10.93;4.47;;;5.20;99.90;;;;;;5007010;28;20076;-20
2023/12/03 12:24:23;;;;;;;9.90;4.28;;;5.10;99.90;;;;;;4994464;28;20152;-20
2023/12/03 12:26:54;;;;;;;8.63;3.80;;;5.20;99.90;;;;;;4995967;28;20064;-20
2023/12/03 12:29:21;;;;;;;9.40;3.97;;;5.10;99.90;;;;;;4981559;28;20406;-20
2023/12/03 12:31:47;;;;;;;9.93;3.63;;;5.10;99.90;;;;;;4998006;28;20045;-20
2023/12/03 12:34:14;;;;;;;10.05;4.32;;;5.20;99.90;;;;;;4966232;28;20041;-21
2023/12/03 12:36:43;;;;;;;9.70;4.03;;;5.20;99.90;;;;;;4990817;28;20126;-20
2023/12/03 12:39:28;;;;;;;10.20;4.00;;;5.20;99.90;;;;;;4989998;28;20026;-20
2023/12/03 12:41:57;;;;;;;12.17;5.10;;;5.20;99.90;;;;;;4997712;28;20112;-21
2023/12/03 12:44:43;;;;;;;13.52;5.07;;;5.20;99.90;;;;;;5004053;28;20037;-20
2023/12/03 12:47:10;;;;;;;9.73;3.58;;;5.20;99.90;;;;;;4989542;28;20482;-20